Time;durP1;ratioP1;P1;durP2;ratioP2;P2;SDS_P1;SDS_P2;PMS_P1;PMS_P2;Temp;Humidity;BMP_temperature;BMP_pressure;BME280_temperature;BME280_humidity;BME280_pressure;Samples;Min_cycle;Max_cycle;Signal;HPM_P1;HPM_P2
2022/07/31 00:00:56;;;;;;;;;;;;;;;18.83;49.55;96730.69;5074415;28;19962;-73
2022/07/31 00:03:21;;;;;;;;;;;;;;;18.79;50.02;96743.72;5073850;28;19965;-73
2022/07/31 00:05:47;;;;;;;;;;;;;;;18.77;50.41;96732.53;5086658;28;19973;-72
2022/07/31 00:08:13;;;;;;;;;;;;;;;18.74;50.10;96750.84;5056031;28;20001;-72
2022/07/31 00:10:39;;;;;;;;;;;;;;;18.72;50.38;96740.47;5072674;28;19976;-72
2022/07/31 00:13:05;;;;;;;;;;;;;;;18.69;50.58;96738.38;5073151;28;19984;-72
2022/07/31 00:15:31;;;;;;;;;;;;;;;18.66;50.81;96738.88;5072816;28;19965;-73
2022/07/31 00:17:57;;;;;;;;;;;;;;;18.62;50.48;96737.78;5055682;28;20050;-73
2022/07/31 00:20:23;;;;;;;;;;;;;;;18.58;51.54;96742.03;5072606;28;20020;-71
2022/07/31 00:22:49;;;;;;;;;;;;;;;18.57;51.73;96745.78;5055326;28;19958;-70
2022/07/31 00:25:15;;;;;;;;;;;;;;;18.53;51.57;96747.34;5071381;28;19972;-72
2022/07/31 00:27:41;;;;;;;;;;;;;;;18.52;52.10;96745.72;5074512;28;20412;-71
2022/07/31 00:30:08;;;;;;;;;;;;;;;18.49;52.06;96741.75;5082341;28;19969;-72
2022/07/31 00:32:34;;;;;;;;;;;;;;;18.49;51.83;96743.63;5075102;28;19947;-73
2022/07/31 00:35:00;;;;;;;;;;;;;;;18.44;52.89;96747.84;5076039;28;20379;-72
2022/07/31 00:37:26;;;;;;;;;;;;;;;18.42;53.57;96749.97;5075795;28;19965;-78
2022/07/31 00:39:53;;;;;;;;;;;;;;;18.39;53.21;96744.38;5079316;28;19959;-73
2022/07/31 00:42:20;;;;;;;;;;;;;;;18.35;52.99;96744.13;5077294;28;19960;-72
2022/07/31 00:44:46;;;;;;;;;;;;;;;18.35;52.93;96743.28;5077323;28;19965;-72
2022/07/31 00:47:12;;;;;;;;;;;;;;;18.34;53.52;96744.38;5077761;28;20400;-72
2022/07/31 00:49:38;;;;;;;;;;;;;;;18.32;53.37;96751.78;5083866;28;19970;-72
2022/07/31 00:52:04;;;;;;;;;;;;;;;18.29;53.88;96742.50;5077021;28;20398;-72
2022/07/31 00:54:30;;;;;;;;;;;;;;;18.27;54.17;96744.59;5080766;28;20332;-73
2022/07/31 00:56:56;;;;;;;;;;;;;;;18.23;54.45;96744.31;5077819;28;19962;-80
2022/07/31 00:59:22;;;;;;;;;;;;;;;18.21;54.68;96745.66;5084572;28;20400;-72
2022/07/31 01:01:48;;;;;;;;;;;;;;;18.15;54.47;96742.16;5080619;28;19955;-72
2022/07/31 01:04:17;;;;;;;;;;;;;;;18.13;54.94;96746.94;5077995;28;20046;-75
2022/07/31 01:06:43;;;;;;;;;;;;;;;18.10;55.04;96747.47;5062591;28;19965;-71
2022/07/31 01:09:09;;;;;;;;;;;;;;;18.05;55.09;96740.25;5080778;28;20446;-71
2022/07/31 01:12:01;;;;;;;;;;;;;;;18.02;55.60;96754.03;5090275;28;20018;-72
2022/07/31 01:14:29;;;;;;;;;;;;;;;17.98;55.68;96752.97;5072320;28;19970;-71
2022/07/31 01:16:57;;;;;;;;;;;;;;;17.94;55.52;96751.88;5084023;28;19959;-71
2022/07/31 01:19:32;;;;;;;;;;;;;;;17.90;55.94;96757.97;5087198;28;19964;-71
2022/07/31 01:22:11;;;;;;;;;;;;;;;17.85;56.18;96754.22;5077743;28;19970;-71
2022/07/31 01:24:43;;;;;;;;;;;;;;;17.81;56.06;96747.78;5074791;28;19961;-71
2022/07/31 01:27:11;;;;;;;;;;;;;;;17.78;56.79;96756.25;5076821;28;20296;-71
2022/07/31 01:29:40;;;;;;;;;;;;;;;17.74;57.11;96751.72;5077778;28;19975;-73
2022/07/31 01:32:12;;;;;;;;;;;;;;;17.70;56.72;96748.81;5075513;28;19964;-72
2022/07/31 01:34:43;;;;;;;;;;;;;;;17.65;57.03;96746.88;5087528;28;19962;-72
2022/07/31 01:37:28;;;;;;;;;;;;;;;17.60;56.86;96743.44;5076205;28;20069;-72
2022/07/31 01:39:58;;;;;;;;;;;;;;;17.54;56.90;96747.88;5075760;28;19956;-71
2022/07/31 01:42:25;;;;;;;;;;;;;;;17.50;56.50;96744.16;5058626;28;19956;-71
2022/07/31 01:44:53;;;;;;;;;;;;;;;17.47;57.02;96747.31;5076856;28;19971;-71
2022/07/31 01:47:20;;;;;;;;;;;;;;;17.44;57.07;96742.50;5074738;28;19964;-71
2022/07/31 01:49:48;;;;;;;;;;;;;;;17.39;57.64;96745.94;5078268;28;19983;-71
2022/07/31 01:52:14;;;;;;;;;;;;;;;17.35;57.58;96744.84;5082633;28;19962;-76
2022/07/31 01:54:40;;;;;;;;;;;;;;;17.32;57.84;96747.97;5075000;28;19967;-70
2022/07/31 01:57:08;;;;;;;;;;;;;;;17.29;57.73;96739.75;5075934;28;19966;-72
2022/07/31 01:59:34;;;;;;;;;;;;;;;17.25;57.40;96742.91;5088802;28;20041;-72
2022/07/31 02:02:02;;;;;;;;;;;;;;;17.21;58.37;96744.44;5080305;28;19980;-71
2022/07/31 02:04:28;;;;;;;;;;;;;;;17.18;57.77;96742.31;5073024;28;19960;-71
2022/07/31 02:06:54;;;;;;;;;;;;;;;17.15;57.92;96734.84;5079914;28;19970;-72
2022/07/31 02:09:21;;;;;;;;;;;;;;;17.11;57.49;96739.06;5082301;28;19975;-74
2022/07/31 02:11:48;;;;;;;;;;;;;;;17.10;57.97;96747.28;5080330;28;19983;-72
2022/07/31 02:14:15;;;;;;;;;;;;;;;17.07;57.75;96743.25;5074813;28;19973;-72
2022/07/31 02:16:41;;;;;;;;;;;;;;;17.04;57.64;96747.22;5074313;28;19983;-72
2022/07/31 02:19:07;;;;;;;;;;;;;;;17.03;58.16;96748.28;5082597;28;19968;-70
2022/07/31 02:21:33;;;;;;;;;;;;;;;17.02;58.22;96753.84;5082077;28;19969;-71
2022/07/31 02:23:59;;;;;;;;;;;;;;;17.01;58.48;96755.69;5074577;28;20346;-71
2022/07/31 02:26:26;;;;;;;;;;;;;;;16.99;58.44;96757.78;5073242;28;20008;-71
2022/07/31 02:28:52;;;;;;;;;;;;;;;16.97;58.51;96754.59;5076849;28;19961;-71
2022/07/31 02:31:20;;;;;;;;;;;;;;;16.94;58.68;96752.44;5086849;28;20442;-71
2022/07/31 02:33:46;;;;;;;;;;;;;;;16.89;58.99;96743.66;5075724;28;19967;-71
2022/07/31 02:36:13;;;;;;;;;;;;;;;16.86;58.97;96746.78;5086395;28;19961;-72
2022/07/31 02:38:39;;;;;;;;;;;;;;;16.83;58.83;96740.16;5080620;28;19970;-72
2022/07/31 02:41:06;;;;;;;;;;;;;;;16.82;59.23;96738.56;5075149;28;19962;-71
2022/07/31 02:43:33;;;;;;;;;;;;;;;16.79;59.48;96745.09;5073846;28;19968;-72
2022/07/31 02:46:00;;;;;;;;;;;;;;;16.76;58.98;96742.97;5074889;28;20415;-72
2022/07/31 02:48:26;;;;;;;;;;;;;;;16.73;58.70;96735.50;5073962;28;19962;-71
2022/07/31 02:50:52;;;;;;;;;;;;;;;16.72;59.74;96741.06;5063885;28;19972;-71
2022/07/31 02:53:18;;;;;;;;;;;;;;;16.70;59.89;96732.56;5085666;28;19975;-71
2022/07/31 02:55:45;;;;;;;;;;;;;;;16.67;59.55;96733.06;5074708;28;19956;-71
2022/07/31 02:58:11;;;;;;;;;;;;;;;16.64;59.77;96735.16;5081398;28;20330;-71
2022/07/31 03:00:37;;;;;;;;;;;;;;;16.62;59.67;96739.09;5090263;28;19962;-70
2022/07/31 03:03:03;;;;;;;;;;;;;;;16.59;59.94;96740.41;5058154;28;20437;-70
2022/07/31 03:05:30;;;;;;;;;;;;;;;16.54;59.87;96737.69;5080185;28;20006;-71
2022/07/31 03:07:56;;;;;;;;;;;;;;;16.52;60.14;96739.00;5079745;28;20027;-71
2022/07/31 03:10:21;;;;;;;;;;;;;;;16.48;60.30;96738.69;5073827;28;20469;-70
2022/07/31 03:12:50;;;;;;;;;;;;;;;16.45;60.60;96733.91;5072157;28;20073;-71
2022/07/31 03:15:17;;;;;;;;;;;;;;;16.42;60.89;96740.50;5075108;28;20354;-71
2022/07/31 03:17:44;;;;;;;;;;;;;;;16.38;61.06;96738.59;5074522;28;19957;-72
2022/07/31 03:20:10;;;;;;;;;;;;;;;16.36;61.63;96746.78;5062684;28;19985;-74
2022/07/31 03:22:38;;;;;;;;;;;;;;;16.32;61.24;96740.38;5073771;28;20416;-78
2022/07/31 03:25:04;;;;;;;;;;;;;;;16.29;61.33;96750.66;5073603;28;19956;-71
2022/07/31 03:27:30;;;;;;;;;;;;;;;16.26;61.26;96741.38;5074008;28;20340;-71
2022/07/31 03:29:56;;;;;;;;;;;;;;;16.23;61.45;96734.72;5081671;28;19961;-71
2022/07/31 03:32:22;;;;;;;;;;;;;;;16.22;61.41;96734.97;5074030;28;20052;-71
2022/07/31 03:34:48;;;;;;;;;;;;;;;16.19;61.61;96735.44;5074072;28;20009;-71
2022/07/31 03:37:14;;;;;;;;;;;;;;;16.15;62.17;96737.78;5074162;28;19959;-70
2022/07/31 03:39:40;;;;;;;;;;;;;;;16.11;62.10;96741.19;5074357;28;20410;-71
2022/07/31 03:42:07;;;;;;;;;;;;;;;16.09;62.42;96741.41;5075142;28;20017;-74
2022/07/31 03:44:34;;;;;;;;;;;;;;;16.06;61.93;96731.31;5075293;28;19955;-70
2022/07/31 03:47:00;;;;;;;;;;;;;;;16.02;62.56;96738.97;5077033;28;19968;-70
2022/07/31 03:49:26;;;;;;;;;;;;;;;16.00;62.05;96730.47;5074321;28;20244;-71
2022/07/31 03:51:52;;;;;;;;;;;;;;;15.99;61.95;96734.16;5060793;28;20343;-71
2022/07/31 03:54:18;;;;;;;;;;;;;;;15.97;62.64;96736.22;5073172;28;19971;-71
2022/07/31 03:56:47;;;;;;;;;;;;;;;15.94;62.99;96741.25;5077510;28;20392;-70
2022/07/31 03:59:13;;;;;;;;;;;;;;;15.92;62.46;96736.19;5073209;28;19963;-72
2022/07/31 04:01:39;;;;;;;;;;;;;;;15.89;62.87;96736.66;5085072;28;19963;-71
2022/07/31 04:04:05;;;;;;;;;;;;;;;15.87;63.41;96748.53;5073457;28;19969;-70
2022/07/31 04:06:31;;;;;;;;;;;;;;;15.85;63.17;96732.91;5081532;28;19959;-70
2022/07/31 04:08:57;;;;;;;;;;;;;;;15.83;64.03;96743.75;5072728;28;19967;-70
2022/07/31 04:11:23;;;;;;;;;;;;;;;15.80;64.03;96736.28;5079204;28;19986;-72
2022/07/31 04:13:49;;;;;;;;;;;;;;;15.80;63.93;96738.13;5076393;28;19970;-71
2022/07/31 04:16:14;;;;;;;;;;;;;;;15.78;64.00;96735.72;5073335;28;19969;-71
2022/07/31 04:18:40;;;;;;;;;;;;;;;15.79;63.79;96737.34;5045404;28;19963;-71
2022/07/31 04:21:06;;;;;;;;;;;;;;;15.80;63.60;96730.19;5078354;28;19997;-72
2022/07/31 04:23:32;;;;;;;;;;;;;;;15.81;63.54;96740.53;5073821;28;19967;-72
2022/07/31 04:25:58;;;;;;;;;;;;;;;15.81;63.91;96742.34;5067704;28;20503;-72
2022/07/31 04:28:24;;;;;;;;;;;;;;;15.83;64.19;96748.22;5073346;28;19958;-72
2022/07/31 04:30:50;;;;;;;;;;;;;;;15.84;64.55;96747.19;5074702;28;19979;-72
2022/07/31 04:33:16;;;;;;;;;;;;;;;15.87;64.59;96753.81;5078197;28;19992;-71
2022/07/31 04:35:42;;;;;;;;;;;;;;;15.89;64.71;96749.09;5072569;28;19982;-71
2022/07/31 04:38:07;;;;;;;;;;;;;;;15.95;64.71;96751.56;5057137;28;19975;-71
2022/07/31 04:40:33;;;;;;;;;;;;;;;16.01;64.44;96744.50;5076481;28;20399;-71
2022/07/31 04:42:59;;;;;;;;;;;;;;;16.09;64.18;96741.41;5071457;28;20007;-72
2022/07/31 04:45:25;;;;;;;;;;;;;;;16.21;64.21;96749.22;5073249;28;19964;-72
2022/07/31 04:47:51;;;;;;;;;;;;;;;16.33;63.94;96749.09;5074022;28;20011;-70
2022/07/31 04:50:17;;;;;;;;;;;;;;;16.45;63.58;96744.50;5077493;28;20437;-71
2022/07/31 04:52:43;;;;;;;;;;;;;;;16.59;62.97;96740.41;5073453;28;19963;-71
2022/07/31 04:55:09;;;;;;;;;;;;;;;16.69;63.14;96750.28;5037808;28;20068;-71
2022/07/31 04:57:34;;;;;;;;;;;;;;;16.76;62.57;96742.19;5082536;28;20445;-71
2022/07/31 05:00:00;;;;;;;;;;;;;;;16.80;62.33;96743.28;5079392;28;19972;-71
2022/07/31 05:02:27;;;;;;;;;;;;;;;16.84;62.49;96744.41;5061151;28;19957;-71
2022/07/31 05:04:53;;;;;;;;;;;;;;;16.85;62.95;96746.00;5071183;28;19957;-71
2022/07/31 05:07:19;;;;;;;;;;;;;;;16.84;62.87;96747.84;5082795;28;20398;-71
2022/07/31 05:09:44;;;;;;;;;;;;;;;16.87;63.44;96756.34;5072860;28;20040;-71
2022/07/31 05:12:10;;;;;;;;;;;;;;;16.89;62.34;96741.00;5079262;28;19989;-71
2022/07/31 05:14:36;;;;;;;;;;;;;;;16.90;62.38;96740.72;5071970;28;19970;-72
2022/07/31 05:17:02;;;;;;;;;;;;;;;16.93;62.47;96745.53;5082065;28;19969;-72
2022/07/31 05:19:29;;;;;;;;;;;;;;;16.96;62.39;96737.06;5055250;28;19964;-71
2022/07/31 05:21:56;;;;;;;;;;;;;;;17.00;63.13;96743.47;5071424;28;19961;-71
2022/07/31 05:24:22;;;;;;;;;;;;;;;17.03;62.51;96735.03;5075905;28;19969;-76
2022/07/31 05:26:48;;;;;;;;;;;;;;;17.10;62.44;96739.34;5074392;28;19961;-71
2022/07/31 05:29:14;;;;;;;;;;;;;;;17.11;61.46;96731.09;5075916;28;19958;-74
2022/07/31 05:31:40;;;;;;;;;;;;;;;17.10;60.56;96724.22;5075890;28;20073;-71
2022/07/31 05:34:06;;;;;;;;;;;;;;;17.08;60.92;96721.03;5074202;28;19970;-71
2022/07/31 05:36:32;;;;;;;;;;;;;;;17.09;61.46;96729.78;5073555;28;20018;-71
2022/07/31 05:38:58;;;;;;;;;;;;;;;17.11;62.29;96733.75;5076433;28;19963;-71
2022/07/31 05:41:24;;;;;;;;;;;;;;;17.12;61.17;96722.13;5075339;28;19970;-70
2022/07/31 05:43:50;;;;;;;;;;;;;;;17.07;60.78;96723.94;5079827;28;19964;-73
2022/07/31 05:46:16;;;;;;;;;;;;;;;17.00;61.62;96729.44;5075048;28;19963;-71
2022/07/31 05:48:43;;;;;;;;;;;;;;;16.99;61.94;96728.63;5075545;28;20008;-71
2022/07/31 05:51:09;;;;;;;;;;;;;;;17.04;63.63;96747.22;5075748;28;19977;-71
2022/07/31 05:53:36;;;;;;;;;;;;;;;17.10;62.73;96741.97;5074556;28;19974;-71
2022/07/31 05:56:02;;;;;;;;;;;;;;;17.16;62.30;96741.78;5075465;28;19959;-70
2022/07/31 05:58:28;;;;;;;;;;;;;;;17.22;61.91;96735.47;5074536;28;19966;-71
2022/07/31 06:00:54;;;;;;;;;;;;;;;17.30;62.46;96744.00;5083155;28;19966;-71
2022/07/31 06:03:23;;;;;;;;;;;;;;;17.36;63.32;96756.22;5075062;28;19980;-71
2022/07/31 06:05:50;;;;;;;;;;;;;;;17.42;63.24;96745.41;5075692;28;19956;-71
2022/07/31 06:08:16;;;;;;;;;;;;;;;17.50;64.01;96764.56;5075911;28;20067;-70
2022/07/31 06:10:42;;;;;;;;;;;;;;;17.53;63.14;96756.09;5074695;28;19971;-71
2022/07/31 06:13:09;;;;;;;;;;;;;;;17.60;63.94;96762.00;5075250;28;20045;-71
2022/07/31 06:15:36;;;;;;;;;;;;;;;17.68;63.95;96771.31;5077356;28;20374;-71
2022/07/31 06:18:02;;;;;;;;;;;;;;;17.73;64.19;96769.50;5075567;28;20057;-72
2022/07/31 06:20:28;;;;;;;;;;;;;;;17.80;64.53;96766.63;5074419;28;19966;-71
2022/07/31 06:22:54;;;;;;;;;;;;;;;17.85;64.42;96766.69;5075613;28;19978;-71
2022/07/31 06:25:20;;;;;;;;;;;;;;;17.91;64.14;96770.97;5081807;28;19970;-71
2022/07/31 06:27:46;;;;;;;;;;;;;;;17.98;63.82;96763.56;5075251;28;20430;-71
2022/07/31 06:30:13;;;;;;;;;;;;;;;18.04;63.19;96761.75;5073877;28;19971;-71
2022/07/31 06:32:39;;;;;;;;;;;;;;;18.08;63.84;96768.16;5057133;28;20440;-71
2022/07/31 06:35:05;;;;;;;;;;;;;;;18.08;63.78;96773.47;5074610;28;20328;-71
2022/07/31 06:37:32;;;;;;;;;;;;;;;18.13;63.27;96770.03;5075200;28;19955;-71
2022/07/31 06:39:57;;;;;;;;;;;;;;;18.16;62.68;96764.97;5081324;28;19962;-71
2022/07/31 06:42:24;;;;;;;;;;;;;;;18.27;64.54;96787.09;5085632;28;20011;-70
2022/07/31 06:44:51;;;;;;;;;;;;;;;18.38;63.18;96775.44;5079662;28;19955;-71
2022/07/31 06:47:18;;;;;;;;;;;;;;;18.48;62.52;96756.09;5074705;28;19982;-71
2022/07/31 06:49:44;;;;;;;;;;;;;;;18.67;62.66;96762.53;5072936;28;19956;-71
2022/07/31 06:52:10;;;;;;;;;;;;;;;18.77;62.40;96763.59;5074663;28;19985;-71
2022/07/31 06:54:36;;;;;;;;;;;;;;;18.80;64.63;96774.53;5073900;28;20456;-71
2022/07/31 06:57:02;;;;;;;;;;;;;;;18.85;62.42;96753.28;5075243;28;19962;-71
2022/07/31 06:59:28;;;;;;;;;;;;;;;18.92;62.34;96745.06;5072875;28;19972;-71
2022/07/31 07:01:54;;;;;;;;;;;;;;;18.98;62.44;96754.66;5074448;28;20348;-71
2022/07/31 07:04:20;;;;;;;;;;;;;;;19.13;61.25;96737.91;5086768;28;20054;-71
2022/07/31 07:06:46;;;;;;;;;;;;;;;19.32;58.85;96718.75;5076279;28;19964;-71
2022/07/31 07:09:11;;;;;;;;;;;;;;;19.47;59.40;96719.56;5073389;28;19965;-71
2022/07/31 07:11:38;;;;;;;;;;;;;;;19.81;58.70;96718.19;5074327;28;20055;-71
2022/07/31 07:14:04;;;;;;;;;;;;;;;20.18;58.35;96704.50;5077987;28;19979;-71
2022/07/31 07:16:30;;;;;;;;;;;;;;;20.53;56.90;96702.69;5072695;28;20055;-71
2022/07/31 07:18:55;;;;;;;;;;;;;;;20.96;54.07;96672.88;5086406;28;20381;-71
2022/07/31 07:21:21;;;;;;;;;;;;;;;21.27;53.64;96676.06;5074339;28;20003;-80
2022/07/31 07:23:47;;;;;;;;;;;;;;;21.61;51.61;96656.56;5083855;28;20004;-71
2022/07/31 07:26:13;;;;;;;;;;;;;;;21.92;51.90;96672.22;5072322;28;19977;-71
2022/07/31 07:28:39;;;;;;;;;;;;;;;22.23;51.81;96668.13;5073298;28;19963;-71
2022/07/31 07:31:05;;;;;;;;;;;;;;;22.38;48.52;96656.44;5068753;28;19982;-71
2022/07/31 07:33:31;;;;;;;;;;;;;;;22.58;48.33;96681.31;5073669;28;19976;-71
2022/07/31 07:35:57;;;;;;;;;;;;;;;22.80;49.14;96681.50;5078424;28;19973;-71
2022/07/31 07:38:23;;;;;;;;;;;;;;;22.98;48.26;96677.22;5077045;28;20051;-72
2022/07/31 07:40:49;;;;;;;;;;;;;;;23.17;45.62;96676.41;5083109;28;19972;-72
2022/07/31 07:43:15;;;;;;;;;;;;;;;23.30;47.64;96684.47;5072999;28;19970;-72
2022/07/31 07:45:41;;;;;;;;;;;;;;;23.37;47.11;96685.97;5073300;28;20402;-72
2022/07/31 07:48:07;;;;;;;;;;;;;;;23.67;46.83;96676.59;5072993;28;19984;-72
2022/07/31 07:50:33;;;;;;;;;;;;;;;23.70;45.89;96676.78;5073647;28;20399;-72
2022/07/31 07:52:59;;;;;;;;;;;;;;;23.85;47.96;96693.69;5071777;28;20336;-73
2022/07/31 07:55:25;;;;;;;;;;;;;;;23.92;44.89;96675.34;5070765;28;19998;-73
2022/07/31 07:57:51;;;;;;;;;;;;;;;23.79;43.25;96668.91;5084046;28;20376;-72
2022/07/31 08:00:17;;;;;;;;;;;;;;;23.63;46.86;96683.63;5074378;28;19976;-73
2022/07/31 08:02:43;;;;;;;;;;;;;;;23.50;47.93;96693.25;5072694;28;20476;-72
2022/07/31 08:05:09;;;;;;;;;;;;;;;23.37;46.76;96691.31;5056161;28;19960;-73
2022/07/31 08:07:36;;;;;;;;;;;;;;;23.28;48.32;96697.34;5074525;28;19965;-73
2022/07/31 08:10:04;;;;;;;;;;;;;;;23.15;47.12;96686.63;5073809;28;19957;-72
2022/07/31 08:12:30;;;;;;;;;;;;;;;23.01;47.73;96689.22;5071573;28;19984;-72
2022/07/31 08:14:56;;;;;;;;;;;;;;;23.10;48.37;96695.53;5079173;28;19968;-72
2022/07/31 08:17:22;;;;;;;;;;;;;;;23.44;46.30;96678.38;5082550;28;19960;-72
2022/07/31 08:19:47;;;;;;;;;;;;;;;23.76;44.94;96676.72;5053343;28;20381;-72
2022/07/31 08:22:13;;;;;;;;;;;;;;;24.12;46.08;96682.16;5074378;28;19975;-73
2022/07/31 08:24:39;;;;;;;;;;;;;;;24.51;47.29;96691.59;5074941;28;20056;-72
2022/07/31 08:27:23;;;;;;;;;;;;;;;24.84;46.58;96686.81;5072555;28;19981;-73
2022/07/31 08:29:59;;;;;;;;;;;;;;;25.19;45.34;96676.31;5072503;28;19962;-76
2022/07/31 08:32:25;;;;;;;;;;;;;;;25.37;46.03;96687.97;5074609;28;20442;-73
2022/07/31 08:34:52;;;;;;;;;;;;;;;25.55;44.14;96680.00;5075262;28;19954;-73
2022/07/31 08:37:18;;;;;;;;;;;;;;;25.71;43.42;96673.13;5073297;28;19963;-73
2022/07/31 08:39:45;;;;;;;;;;;;;;;25.85;42.98;96681.88;5073371;28;19962;-73
2022/07/31 08:42:11;;;;;;;;;;;;;;;25.91;42.54;96675.28;5073031;28;19960;-75
2022/07/31 08:44:38;;;;;;;;;;;;;;;26.05;40.93;96669.78;5073323;28;19967;-73
2022/07/31 08:47:07;;;;;;;;;;;;;;;26.25;42.33;96676.47;5073311;28;19967;-73
2022/07/31 08:49:38;;;;;;;;;;;;;;;26.41;39.91;96655.28;5073256;28;19969;-74
2022/07/31 08:52:04;;;;;;;;;;;;;;;26.41;40.86;96674.13;5062209;28;19977;-73
2022/07/31 08:54:31;;;;;;;;;;;;;;;26.57;41.29;96673.69;5073003;28;19978;-73
2022/07/31 08:56:57;;;;;;;;;;;;;;;26.73;39.15;96648.69;5073533;28;19968;-73
2022/07/31 08:59:23;;;;;;;;;;;;;;;26.79;40.00;96665.44;5076655;28;19966;-72
2022/07/31 09:01:50;;;;;;;;;;;;;;;26.79;38.78;96659.28;5077083;28;20299;-73
2022/07/31 09:04:16;;;;;;;;;;;;;;;26.84;39.87;96661.84;5074858;28;19965;-73
2022/07/31 09:06:41;;;;;;;;;;;;;;;26.90;38.49;96647.88;5079088;28;20353;-73
2022/07/31 09:09:07;;;;;;;;;;;;;;;26.98;39.63;96654.34;5079153;28;20007;-74
2022/07/31 09:11:33;;;;;;;;;;;;;;;27.04;37.46;96641.53;5076045;28;20512;-72
2022/07/31 09:14:00;;;;;;;;;;;;;;;27.25;38.97;96657.81;5082441;28;20003;-72
2022/07/31 09:16:26;;;;;;;;;;;;;;;27.19;36.39;96641.00;5076368;28;20315;-73
2022/07/31 09:18:56;;;;;;;;;;;;;;;27.28;38.38;96657.97;5075877;28;19998;-72
2022/07/31 09:21:22;;;;;;;;;;;;;;;27.41;37.47;96647.34;5075363;28;19958;-74
2022/07/31 09:23:47;;;;;;;;;;;;;;;27.52;36.28;96635.09;5076786;28;19967;-73
2022/07/31 09:26:14;;;;;;;;;;;;;;;27.40;36.43;96643.03;5076635;28;20372;-73
2022/07/31 09:28:42;;;;;;;;;;;;;;;27.06;36.30;96637.41;5076343;28;20047;-72
2022/07/31 09:31:08;;;;;;;;;;;;;;;26.72;38.05;96649.00;5076103;28;19963;-73
2022/07/31 09:33:39;;;;;;;;;;;;;;;26.50;38.86;96661.47;5075288;28;19954;-73
2022/07/31 09:36:05;;;;;;;;;;;;;;;26.33;39.49;96666.81;5076171;28;19962;-72
2022/07/31 09:38:33;;;;;;;;;;;;;;;26.19;40.36;96661.59;5076311;28;19967;-73
2022/07/31 09:41:09;;;;;;;;;;;;;;;26.09;40.09;96665.38;5076283;28;19955;-73
2022/07/31 09:43:35;;;;;;;;;;;;;;;26.02;38.49;96650.81;5076092;28;19961;-72
2022/07/31 09:46:02;;;;;;;;;;;;;;;26.01;41.10;96662.66;5076202;28;20468;-72
2022/07/31 09:48:28;;;;;;;;;;;;;;;26.16;38.84;96651.47;5075180;28;20047;-73
2022/07/31 09:51:05;;;;;;;;;;;;;;;26.30;37.84;96651.34;5089502;28;19968;-73
2022/07/31 09:53:40;;;;;;;;;;;;;;;26.38;37.85;96641.72;5084518;28;19974;-73
2022/07/31 09:56:09;;;;;;;;;;;;;;;26.45;38.91;96644.69;5087302;28;20334;-73
2022/07/31 09:58:35;;;;;;;;;;;;;;;26.52;37.94;96647.69;5078668;28;19962;-73
2022/07/31 10:01:01;;;;;;;;;;;;;;;26.68;37.41;96634.59;5082920;28;19971;-74
2022/07/31 10:03:28;;;;;;;;;;;;;;;26.80;36.66;96624.00;5079235;28;20440;-73
2022/07/31 10:05:55;;;;;;;;;;;;;;;27.04;36.89;96625.38;5083721;28;19958;-73
2022/07/31 10:08:22;;;;;;;;;;;;;;;27.23;35.82;96620.44;5077907;28;20071;-73
2022/07/31 10:10:48;;;;;;;;;;;;;;;27.19;34.50;96605.22;5079089;28;20035;-72
2022/07/31 10:13:18;;;;;;;;;;;;;;;27.17;37.04;96626.28;5075811;28;19986;-73
2022/07/31 10:15:45;;;;;;;;;;;;;;;27.15;35.36;96626.59;5086316;28;20423;-73
2022/07/31 10:18:11;;;;;;;;;;;;;;;27.17;37.23;96631.69;5074595;28;19963;-73
2022/07/31 10:20:40;;;;;;;;;;;;;;;27.17;36.34;96619.00;5076660;28;19966;-73
2022/07/31 10:23:16;;;;;;;;;;;;;;;27.26;37.38;96621.72;5074602;28;19963;-74
2022/07/31 10:25:48;;;;;;;;;;;;;;;27.27;35.13;96612.50;5080121;28;19961;-73
2022/07/31 10:28:14;;;;;;;;;;;;;;;27.16;33.68;96603.97;5079651;28;19973;-73
2022/07/31 10:30:40;;;;;;;;;;;;;;;27.24;34.34;96615.88;5075746;28;19965;-73
2022/07/31 10:33:06;;;;;;;;;;;;;;;27.51;36.06;96626.22;5074596;28;20028;-72
2022/07/31 10:35:38;;;;;;;;;;;;;;;27.77;34.64;96611.81;5076470;28;20320;-73
2022/07/31 10:38:22;;;;;;;;;;;;;;;27.93;33.91;96609.41;5075055;28;20439;-73
2022/07/31 10:40:54;;;;;;;;;;;;;;;27.89;34.85;96606.56;5057897;28;20054;-72
2022/07/31 10:43:28;;;;;;;;;;;;;;;27.80;34.86;96602.28;5075258;28;19958;-73
2022/07/31 10:45:54;;;;;;;;;;;;;;;27.71;34.95;96603.13;5073891;28;19961;-73
2022/07/31 10:48:21;;;;;;;;;;;;;;;27.64;36.45;96608.25;5075097;28;19961;-73
2022/07/31 10:50:47;;;;;;;;;;;;;;;27.49;35.74;96600.72;5072472;28;19964;-74
2022/07/31 10:53:16;;;;;;;;;;;;;;;27.37;35.28;96600.63;5074410;28;20468;-73
2022/07/31 10:55:43;;;;;;;;;;;;;;;27.26;35.83;96606.34;5073653;28;19961;-73
2022/07/31 10:58:13;;;;;;;;;;;;;;;27.21;35.87;96606.47;5073603;28;19962;-73
2022/07/31 11:00:39;;;;;;;;;;;;;;;27.18;36.07;96607.13;5055453;28;20457;-73
2022/07/31 11:03:15;;;;;;;;;;;;;;;27.19;35.87;96602.53;5073416;28;20336;-73
2022/07/31 11:05:51;;;;;;;;;;;;;;;27.21;35.40;96587.63;5083602;28;20461;-73
2022/07/31 11:08:17;;;;;;;;;;;;;;;27.37;35.34;96592.53;5067529;28;19967;-73
2022/07/31 11:10:52;;;;;;;;;;;;;;;27.74;35.57;96585.53;5071906;28;19994;-74
2022/07/31 11:13:18;;;;;;;;;;;;;;;28.13;35.15;96587.03;5075692;28;20457;-73
2022/07/31 11:15:44;;;;;;;;;;;;;;;28.38;34.50;96573.69;5071947;28;19962;-73
2022/07/31 11:18:15;;;;;;;;;;;;;;;28.50;32.15;96557.59;5070898;28;20065;-73
2022/07/31 11:20:45;;;;;;;;;;;;;;;28.62;33.88;96566.84;5065290;28;20615;-75
2022/07/31 11:23:15;;;;;;;;;;;;;;;28.85;35.62;96570.75;5070715;28;20359;-75
2022/07/31 11:25:42;;;;;;;;;;;;;;;28.96;32.19;96560.31;5072095;28;20394;-74
2022/07/31 11:28:20;;;;;;;;;;;;;;;29.13;33.84;96567.47;5072665;28;19963;-73
2022/07/31 11:31:00;;;;;;;;;;;;;;;29.36;33.38;96570.53;5072313;28;20343;-73
2022/07/31 11:33:32;;;;;;;;;;;;;;;29.39;33.50;96558.25;5073277;28;19983;-73
2022/07/31 11:36:11;;;;;;;;;;;;;;;29.43;32.57;96561.88;5072500;28;20361;-73
2022/07/31 11:38:38;;;;;;;;;;;;;;;29.44;32.29;96561.53;5070474;28;20425;-73
2022/07/31 11:41:04;;;;;;;;;;;;;;;29.34;30.66;96543.06;5070675;28;19980;-73
2022/07/31 11:43:31;;;;;;;;;;;;;;;29.26;32.55;96552.84;5054900;28;19952;-73
2022/07/31 11:45:57;;;;;;;;;;;;;;;29.41;31.88;96553.31;5074464;28;19957;-74
2022/07/31 11:48:25;;;;;;;;;;;;;;;29.42;32.13;96547.56;5072883;28;20019;-76
2022/07/31 11:50:51;;;;;;;;;;;;;;;29.25;31.37;96545.88;5071568;28;19956;-72
2022/07/31 11:53:18;;;;;;;;;;;;;;;29.08;32.27;96552.25;5074717;28;19983;-72
2022/07/31 11:55:45;;;;;;;;;;;;;;;28.93;32.35;96545.56;5072454;28;19967;-74
2022/07/31 11:58:11;;;;;;;;;;;;;;;28.93;33.70;96555.56;5071070;28;19966;-73
2022/07/31 12:00:37;;;;;;;;;;;;;;;28.97;31.50;96529.50;5074286;28;19965;-74
2022/07/31 12:03:03;;;;;;;;;;;;;;;29.00;31.94;96528.84;5072167;28;20420;-75
2022/07/31 12:05:29;;;;;;;;;;;;;;;29.17;32.85;96540.56;5071411;28;19968;-73
2022/07/31 12:07:55;;;;;;;;;;;;;;;29.45;30.29;96519.88;5071146;28;20020;-73
2022/07/31 12:10:21;;;;;;;;;;;;;;;29.77;32.76;96530.13;5071256;28;19974;-72
2022/07/31 12:12:47;;;;;;;;;;;;;;;30.08;31.16;96516.75;5053188;28;19986;-73
2022/07/31 12:15:13;;;;;;;;;;;;;;;30.30;31.32;96520.88;5074372;28;19970;-74
2022/07/31 12:17:39;;;;;;;;;;;;;;;30.24;29.67;96511.41;5073769;28;19959;-73
2022/07/31 12:20:06;;;;;;;;;;;;;;;30.23;30.55;96517.94;5069666;28;19976;-75
2022/07/31 12:22:32;;;;;;;;;;;;;;;30.41;29.92;96513.06;5037561;28;20460;-73
2022/07/31 12:24:59;;;;;;;;;;;;;;;30.55;29.24;96520.75;5072795;28;19971;-73
2022/07/31 12:27:25;;;;;;;;;;;;;;;30.82;30.37;96521.06;5069515;28;19967;-73
2022/07/31 12:29:51;;;;;;;;;;;;;;;31.02;28.88;96506.53;5070002;28;19998;-73
2022/07/31 12:32:24;;;;;;;;;;;;;;;31.16;28.91;96503.34;5072379;28;19972;-77
2022/07/31 12:34:59;;;;;;;;;;;;;;;31.20;29.98;96500.75;5079806;28;19972;-74
2022/07/31 12:37:25;;;;;;;;;;;;;;;31.29;29.75;96504.84;5077664;28;20441;-75
2022/07/31 12:39:52;;;;;;;;;;;;;;;31.27;29.45;96503.63;5078737;28;20007;-74
2022/07/31 12:42:21;;;;;;;;;;;;;;;30.99;28.06;96501.00;5088425;28;19970;-73
2022/07/31 12:44:48;;;;;;;;;;;;;;;30.72;29.03;96503.41;5076419;28;20422;-74
2022/07/31 12:47:24;;;;;;;;;;;;;;;30.66;28.44;96499.38;5077170;28;19967;-73